Time;durP1;ratioP1;P1;durP2;ratioP2;P2;SDS_P1;SDS_P2;PMS_P1;PMS_P2;Temp;Humidity;BMP_temperature;BMP_pressure;BME280_temperature;BME280_humidity;BME280_pressure;Samples;Min_cycle;Max_cycle;Signal;HPM_P1;HPM_P2
2022/01/25 00:32:12;;;;;;;17.42;11.00;;;5.90;53.30;;;;;;4876591;29;20028;-90
2022/01/25 00:34:38;;;;;;;14.63;10.45;;;5.80;53.20;;;;;;4905478;29;20068;-89
2022/01/25 00:37:04;;;;;;;17.27;11.10;;;5.80;53.20;;;;;;4891645;29;20150;-91
2022/01/25 00:39:31;;;;;;;16.88;11.43;;;5.80;53.20;;;;;;4906235;29;20083;-88
2022/01/25 00:41:57;;;;;;;19.05;11.43;;;5.80;53.10;;;;;;4890841;29;20103;-90
2022/01/25 00:44:24;;;;;;;18.77;11.35;;;5.80;53.10;;;;;;4890127;29;20156;-89
2022/01/25 00:46:50;;;;;;;18.20;10.65;;;5.80;53.10;;;;;;4911287;29;20044;-92
2022/01/25 00:49:26;;;;;;;18.27;11.35;;;5.80;53.10;;;;;;4923658;29;20032;-91
2022/01/25 00:54:30;;;;;;;18.40;11.25;;;5.80;53.00;;;;;;4937914;29;20087;-91
2022/01/25 00:56:57;;;;;;;17.02;11.00;;;5.80;53.10;;;;;;4941476;29;20043;-89
2022/01/25 00:59:29;;;;;;;16.52;10.90;;;5.80;53.70;;;;;;4923609;29;20063;-91
2022/01/25 01:01:58;;;;;;;16.08;10.85;;;5.80;53.10;;;;;;4914090;29;20036;-88
2022/01/25 01:04:24;;;;;;;14.93;9.82;;;5.80;53.10;;;;;;4924308;29;20095;-90
2022/01/25 01:06:51;;;;;;;16.95;10.43;;;5.80;53.10;;;;;;4951952;29;20015;-88
2022/01/25 01:09:20;;;;;;;16.77;10.27;;;5.80;53.10;;;;;;4940552;29;20032;-86
2022/01/25 01:12:14;;;;;;;17.08;10.00;;;5.70;53.10;;;;;;4947818;29;20044;-89
2022/01/25 01:31:03;;;;;;;12.80;9.25;;;5.70;53.30;;;;;;4922776;29;20446;-86
2022/01/25 01:43:57;;;;;;;14.98;8.90;;;5.70;53.20;;;;;;4941089;29;20031;-87
2022/01/25 01:46:39;;;;;;;12.43;8.57;;;5.70;53.10;;;;;;4942733;29;20071;-86
2022/01/25 01:49:07;;;;;;;15.05;9.23;;;5.70;53.20;;;;;;4940411;29;20044;-85
2022/01/25 01:51:37;;;;;;;15.40;9.80;;;5.70;53.10;;;;;;4939645;29;20032;-86
2022/01/25 01:54:09;;;;;;;14.40;9.02;;;5.70;53.10;;;;;;4908106;29;20042;-86
2022/01/25 01:56:36;;;;;;;13.20;8.75;;;5.60;53.10;;;;;;4923449;29;20044;-87
2022/01/25 01:59:06;;;;;;;15.07;9.25;;;5.60;53.00;;;;;;4940166;29;20146;-86
2022/01/25 02:01:33;;;;;;;12.00;8.25;;;5.60;53.00;;;;;;4901592;29;20117;-86
2022/01/25 02:04:02;;;;;;;13.68;9.23;;;5.60;53.00;;;;;;4925321;29;20024;-85
2022/01/25 02:06:28;;;;;;;14.25;10.18;;;5.60;53.00;;;;;;4932423;29;20032;-85
2022/01/25 02:08:54;;;;;;;14.98;9.57;;;5.60;53.00;;;;;;4948243;29;20032;-87
2022/01/25 02:11:21;;;;;;;18.90;10.35;;;5.60;53.00;;;;;;4940315;29;20043;-86
2022/01/25 02:13:48;;;;;;;14.98;9.52;;;5.60;52.90;;;;;;4948328;29;20040;-86
2022/01/25 02:16:31;;;;;;;15.98;10.23;;;5.60;52.90;;;;;;4947654;29;20111;-87
2022/01/25 02:24:28;;;;;;;14.82;10.07;;;5.60;52.90;;;;;;4925890;29;20023;-87
2022/01/25 02:26:56;;;;;;;16.42;10.20;;;5.60;52.90;;;;;;4925146;29;20497;-87
2022/01/25 02:29:22;;;;;;;13.98;9.52;;;5.60;52.90;;;;;;4926930;29;20043;-87
2022/01/25 02:31:49;;;;;;;13.75;9.07;;;5.60;52.90;;;;;;4925267;29;20050;-86
2022/01/25 02:34:15;;;;;;;15.63;10.13;;;5.60;52.90;;;;;;4940290;28;20035;-87
2022/01/25 02:36:41;;;;;;;14.65;9.35;;;5.60;52.90;;;;;;4939976;29;20110;-86
2022/01/25 02:39:06;;;;;;;16.27;10.50;;;5.60;52.90;;;;;;4939647;29;20497;-86
2022/01/25 02:41:33;;;;;;;15.63;10.57;;;5.60;52.90;;;;;;4924672;29;20040;-86
2022/01/25 02:43:59;;;;;;;16.63;10.75;;;5.60;53.00;;;;;;4925815;29;20034;-86
2022/01/25 02:49:02;;;;;;;16.73;10.13;;;5.60;53.00;;;;;;4940362;29;20524;-86
2022/01/25 02:51:30;;;;;;;17.42;11.10;;;5.60;53.10;;;;;;4925902;29;20055;-86
2022/01/25 02:53:57;;;;;;;17.80;10.55;;;5.60;53.10;;;;;;4924456;29;20091;-85
2022/01/25 02:56:25;;;;;;;15.00;9.88;;;5.50;53.10;;;;;;4907402;29;20040;-87
2022/01/25 02:58:51;;;;;;;16.65;10.27;;;5.60;53.20;;;;;;4910661;29;20092;-85
2022/01/25 03:01:18;;;;;;;16.38;10.45;;;5.60;53.20;;;;;;4932697;29;20035;-87
2022/01/25 03:03:45;;;;;;;14.40;10.25;;;5.50;53.20;;;;;;4906950;29;20032;-86
2022/01/25 03:06:18;;;;;;;16.05;10.73;;;5.50;53.20;;;;;;4932655;29;20032;-84
2022/01/25 03:08:45;;;;;;;16.45;11.07;;;5.60;53.30;;;;;;4926530;29;20408;-85
2022/01/25 03:11:11;;;;;;;15.02;9.93;;;5.50;53.30;;;;;;4928073;29;20036;-85
2022/01/25 03:13:53;;;;;;;16.30;10.63;;;5.50;53.30;;;;;;4950724;29;20128;-85
2022/01/25 03:16:32;;;;;;;14.35;9.90;;;5.50;53.30;;;;;;4962509;29;20062;-85
2022/01/25 03:19:03;;;;;;;15.20;10.27;;;5.50;53.30;;;;;;4952834;29;20031;-85
2022/01/25 03:23:57;;;;;;;15.15;10.10;;;5.60;53.30;;;;;;4940823;29;20123;-87
2022/01/25 03:26:24;;;;;;;14.02;9.38;;;5.50;53.30;;;;;;4924039;29;20055;-87
2022/01/25 03:28:51;;;;;;;16.48;10.43;;;5.50;53.20;;;;;;4916399;29;20379;-86
2022/01/25 03:31:17;;;;;;;14.10;9.35;;;5.50;53.30;;;;;;4938454;29;20036;-86
2022/01/25 03:33:44;;;;;;;15.88;10.18;;;5.50;53.30;;;;;;4926014;29;20577;-83
2022/01/25 03:36:11;;;;;;;14.35;9.30;;;5.50;53.30;;;;;;4922130;29;20039;-86
2022/01/25 03:38:38;;;;;;;15.30;9.75;;;5.50;53.30;;;;;;4939092;29;20043;-86
2022/01/25 03:41:07;;;;;;;15.55;10.48;;;5.50;53.30;;;;;;4939851;29;20036;-85
2022/01/25 03:43:34;;;;;;;15.82;10.05;;;5.50;53.30;;;;;;4931952;29;20402;-86
2022/01/25 03:46:08;;;;;;;16.00;10.32;;;5.50;53.20;;;;;;4936633;29;20118;-82
2022/01/25 03:51:00;;;;;;;17.20;10.90;;;5.50;53.20;;;;;;4923452;29;20134;-83
2022/01/25 03:53:27;;;;;;;19.38;10.93;;;5.50;53.20;;;;;;4937284;29;20092;-83
2022/01/25 03:55:53;;;;;;;15.80;10.75;;;5.50;53.20;;;;;;4938019;29;20028;-84
2022/01/25 03:58:20;;;;;;;15.88;10.20;;;5.50;53.30;;;;;;4937635;29;20056;-83
2022/01/25 04:00:48;;;;;;;15.45;10.02;;;5.50;53.30;;;;;;4921373;29;20055;-83
2022/01/25 04:03:25;;;;;;;16.55;10.88;;;5.50;53.30;;;;;;4916469;29;20046;-85
2022/01/25 04:05:53;;;;;;;16.90;10.75;;;5.50;53.40;;;;;;4934177;29;20525;-82
2022/01/25 04:08:19;;;;;;;17.17;11.55;;;5.50;53.40;;;;;;4923968;29;20031;-84
2022/01/25 04:10:47;;;;;;;16.40;10.70;;;5.50;53.40;;;;;;4922743;29;20043;-84
2022/01/25 04:13:13;;;;;;;17.02;10.65;;;5.50;53.50;;;;;;4937552;29;20036;-84
2022/01/25 04:15:45;;;;;;;15.35;10.40;;;5.50;53.60;;;;;;4944966;29;20067;-84
2022/01/25 04:18:28;;;;;;;15.63;10.75;;;5.50;53.60;;;;;;4931862;29;20035;-84
2022/01/25 04:21:26;;;;;;;15.82;9.77;;;5.50;53.50;;;;;;4932084;29;20047;-85
2022/01/25 04:26:36;;;;;;;14.70;9.82;;;5.60;53.40;;;;;;4923044;29;20082;-85
2022/01/25 04:29:03;;;;;;;14.43;9.93;;;5.60;53.30;;;;;;4939038;29;20032;-85
2022/01/25 04:31:29;;;;;;;16.65;10.43;;;5.60;53.30;;;;;;4922827;29;20068;-83
2022/01/25 04:34:09;;;;;;;14.15;9.50;;;5.70;53.30;;;;;;4938614;29;20071;-85
2022/01/25 04:50:12;;;;;;;14.52;9.45;;;5.70;53.00;;;;;;4920757;29;20032;-81
2022/01/25 04:52:50;;;;;;;14.25;9.57;;;5.70;53.00;;;;;;4922531;29;20126;-82
2022/01/25 04:55:27;;;;;;;16.17;10.20;;;5.70;53.00;;;;;;4922478;29;20032;-82
2022/01/25 04:58:03;;;;;;;15.25;10.40;;;5.70;53.00;;;;;;4936523;29;20040;-83
2022/01/25 05:00:29;;;;;;;14.25;9.20;;;5.70;52.90;;;;;;4925397;29;20124;-87
2022/01/25 05:05:36;;;;;;;13.27;8.82;;;5.70;52.90;;;;;;4931847;29;20064;-88
2022/01/25 05:10:31;;;;;;;14.35;9.20;;;5.70;53.00;;;;;;4924245;29;20040;-93
2022/01/25 05:23:24;;;;;;;13.73;9.20;;;5.70;53.30;;;;;;4959560;28;20090;-86
2022/01/25 05:25:50;;;;;;;18.27;9.43;;;5.70;53.40;;;;;;4948520;29;20041;-89
2022/01/25 05:28:16;;;;;;;15.40;9.50;;;5.70;53.40;;;;;;4942071;29;20071;-87
2022/01/25 05:30:42;;;;;;;14.23;8.52;;;5.70;53.40;;;;;;4956032;29;20063;-88
2022/01/25 05:33:08;;;;;;;14.77;8.75;;;5.70;53.50;;;;;;4929724;29;20463;-87
2022/01/25 05:35:34;;;;;;;15.85;9.57;;;5.70;53.50;;;;;;4930755;29;20039;-88
2022/01/25 05:38:00;;;;;;;14.73;8.95;;;5.70;53.60;;;;;;4932416;29;20119;-86
2022/01/25 05:40:56;;;;;;;14.13;8.95;;;5.70;53.60;;;;;;4937341;29;20167;-86
2022/01/25 05:46:16;;;;;;;12.88;8.15;;;5.70;53.60;;;;;;4925591;29;20114;-87
2022/01/25 05:48:43;;;;;;;14.45;9.25;;;5.70;53.60;;;;;;4924218;29;20040;-89
2022/01/25 05:51:10;;;;;;;14.05;9.15;;;5.70;53.60;;;;;;4937751;29;20039;-87
2022/01/25 05:53:37;;;;;;;16.35;9.40;;;5.70;53.60;;;;;;4921676;29;20035;-88
2022/01/25 05:56:04;;;;;;;13.25;8.55;;;5.70;53.60;;;;;;4913417;29;20520;-90
2022/01/25 05:58:30;;;;;;;14.68;9.32;;;5.70;53.60;;;;;;4935088;29;20514;-89
2022/01/25 06:00:56;;;;;;;14.20;9.32;;;5.70;53.70;;;;;;4938345;29;20035;-90
2022/01/25 06:03:22;;;;;;;16.30;10.10;;;5.70;53.70;;;;;;4943256;29;20036;-90
2022/01/25 06:05:48;;;;;;;11.88;8.70;;;5.70;53.70;;;;;;4943358;29;21159;-90
2022/01/25 06:08:14;;;;;;;15.07;9.30;;;5.70;53.70;;;;;;4910845;29;20491;-89
2022/01/25 06:10:40;;;;;;;13.90;8.63;;;5.70;53.70;;;;;;4929790;29;20055;-91
2022/01/25 06:13:06;;;;;;;17.27;10.05;;;5.70;53.70;;;;;;4929966;29;20122;-90
2022/01/25 06:15:33;;;;;;;14.13;9.02;;;5.70;53.60;;;;;;4947350;29;20126;-89
2022/01/25 06:17:59;;;;;;;13.60;9.57;;;5.60;53.60;;;;;;4929644;29;20038;-90
2022/01/25 06:20:25;;;;;;;13.77;9.32;;;5.70;53.90;;;;;;4945977;29;21523;-90
2022/01/25 06:22:51;;;;;;;15.45;9.50;;;5.70;53.90;;;;;;4965118;28;20027;-84
2022/01/25 06:25:17;;;;;;;15.82;10.32;;;5.60;53.90;;;;;;4951393;28;20034;-88
2022/01/25 06:27:44;;;;;;;14.23;8.30;;;5.70;54.00;;;;;;4965877;28;20087;-88
2022/01/25 06:30:15;;;;;;;15.00;9.63;;;5.70;54.00;;;;;;4933602;29;20059;-90
2022/01/25 06:32:41;;;;;;;14.50;9.30;;;5.70;54.00;;;;;;4937205;29;20067;-90
2022/01/25 06:35:08;;;;;;;13.05;9.15;;;5.70;54.00;;;;;;4950246;29;20028;-89
2022/01/25 06:37:35;;;;;;;15.27;9.85;;;5.70;54.00;;;;;;4936808;29;20042;-89
2022/01/25 06:40:02;;;;;;;16.77;10.82;;;5.70;54.10;;;;;;4931795;29;20091;-91
2022/01/25 06:42:31;;;;;;;17.33;9.70;;;5.70;54.10;;;;;;4943725;29;20036;-93
2022/01/25 06:45:01;;;;;;;16.02;9.73;;;5.60;54.00;;;;;;4943044;29;20071;-90
2022/01/25 06:47:27;;;;;;;16.10;9.95;;;5.70;54.00;;;;;;4929360;29;20029;-88
2022/01/25 06:49:53;;;;;;;13.32;8.82;;;5.70;54.00;;;;;;4949955;29;20028;-88
2022/01/25 06:52:19;;;;;;;16.73;10.57;;;5.60;53.90;;;;;;4941167;29;20103;-87
2022/01/25 06:54:45;;;;;;;16.33;10.57;;;5.70;53.90;;;;;;4915397;29;20496;-89
2022/01/25 06:57:11;;;;;;;15.45;10.10;;;5.60;53.90;;;;;;4937227;29;20046;-90
2022/01/25 06:59:38;;;;;;;16.88;10.50;;;5.70;54.00;;;;;;4937896;29;20458;-91
2022/01/25 07:02:07;;;;;;;14.40;9.77;;;5.70;54.00;;;;;;4947871;29;20044;-91
2022/01/25 07:04:33;;;;;;;16.52;10.10;;;5.60;53.90;;;;;;4932185;29;20046;-89
2022/01/25 07:07:23;;;;;;;17.30;10.95;;;5.70;54.00;;;;;;4958872;28;20027;-88
2022/01/25 07:09:49;;;;;;;16.50;10.50;;;5.60;53.80;;;;;;4939347;29;20243;-86
2022/01/25 07:12:33;;;;;;;18.92;10.60;;;5.70;53.80;;;;;;4949672;29;20692;-92
2022/01/25 07:15:06;;;;;;;18.90;10.70;;;5.70;53.90;;;;;;4929460;29;20094;-91
2022/01/25 07:17:32;;;;;;;15.43;10.25;;;5.70;53.80;;;;;;4919085;29;20413;-92
2022/01/25 07:19:59;;;;;;;18.15;10.85;;;5.70;53.70;;;;;;4915506;29;20040;-93
2022/01/25 07:22:25;;;;;;;17.23;9.65;;;5.70;53.70;;;;;;4912971;29;20044;-91
2022/01/25 07:24:50;;;;;;;15.73;10.18;;;5.70;53.60;;;;;;4940435;29;20040;-90
2022/01/25 07:27:17;;;;;;;16.85;9.93;;;5.70;53.60;;;;;;4942362;29;20080;-90
2022/01/25 07:29:43;;;;;;;19.98;11.18;;;5.70;53.60;;;;;;4961044;29;20059;-87
2022/01/25 07:32:08;;;;;;;19.42;10.68;;;5.70;53.60;;;;;;4945795;29;20039;-88
2022/01/25 07:34:34;;;;;;;16.48;10.18;;;5.60;53.50;;;;;;4937340;29;20039;-89
2022/01/25 07:37:00;;;;;;;17.58;10.73;;;5.70;53.50;;;;;;4945899;29;20035;-91
2022/01/25 07:39:28;;;;;;;18.17;11.60;;;5.70;53.60;;;;;;4942111;29;20035;-91
2022/01/25 07:41:58;;;;;;;17.77;10.70;;;5.70;53.60;;;;;;4931849;29;20039;-91
2022/01/25 07:44:31;;;;;;;15.75;10.63;;;5.70;53.60;;;;;;4921258;29;20028;-89
2022/01/25 07:46:57;;;;;;;15.35;10.40;;;5.70;53.70;;;;;;4922541;29;20107;-91
2022/01/25 07:49:28;;;;;;;17.20;10.70;;;5.70;53.60;;;;;;4923597;29;20031;-91
2022/01/25 07:51:54;;;;;;;18.88;10.80;;;5.70;53.70;;;;;;4931619;29;20622;-90
2022/01/25 07:54:20;;;;;;;17.38;10.77;;;5.70;53.70;;;;;;4923385;29;20031;-88
2022/01/25 07:56:46;;;;;;;19.85;11.85;;;5.70;53.80;;;;;;4921735;29;20494;-89
2022/01/25 07:59:13;;;;;;;16.73;10.45;;;5.70;53.80;;;;;;4940188;29;20059;-90
2022/01/25 08:01:40;;;;;;;16.75;10.15;;;5.70;53.70;;;;;;4938064;29;20039;-90
2022/01/25 08:04:08;;;;;;;17.83;10.63;;;5.70;53.80;;;;;;4924501;29;20035;-88
2022/01/25 08:06:34;;;;;;;17.17;10.90;;;5.70;53.80;;;;;;4925719;29;20132;-93
2022/01/25 08:09:01;;;;;;;15.43;10.10;;;5.70;53.80;;;;;;4941869;29;20441;-90
2022/01/25 08:11:28;;;;;;;17.77;10.70;;;5.70;53.70;;;;;;4939398;29;20036;-90
2022/01/25 08:14:01;;;;;;;15.13;9.77;;;5.70;53.70;;;;;;4923765;29;20142;-92
2022/01/25 08:16:27;;;;;;;15.00;9.85;;;5.70;53.70;;;;;;4938643;29;20134;-91
2022/01/25 08:18:53;;;;;;;15.23;10.27;;;5.70;53.70;;;;;;4932626;29;20047;-89
2022/01/25 08:21:19;;;;;;;17.30;11.40;;;5.70;53.70;;;;;;4937678;29;20032;-89
2022/01/25 08:23:45;;;;;;;19.05;11.23;;;5.70;53.70;;;;;;4924010;29;20035;-88
2022/01/25 08:26:11;;;;;;;17.95;11.68;;;5.70;53.70;;;;;;4923901;29;20032;-89
2022/01/25 08:28:37;;;;;;;15.93;10.88;;;5.70;53.70;;;;;;4927048;29;20032;-91
2022/01/25 08:31:03;;;;;;;18.67;11.23;;;5.70;53.70;;;;;;4954555;29;20036;-93
2022/01/25 08:33:29;;;;;;;18.58;11.00;;;5.70;53.70;;;;;;4954997;29;20032;-89
2022/01/25 08:36:08;;;;;;;18.65;11.43;;;5.70;53.80;;;;;;4941031;29;20032;-90
2022/01/25 08:38:35;;;;;;;18.70;10.88;;;5.70;54.70;;;;;;4940438;29;20070;-92
2022/01/25 08:41:01;;;;;;;19.70;11.57;;;5.70;55.10;;;;;;4957312;29;20028;-92
2022/01/25 08:43:27;;;;;;;21.25;11.82;;;5.70;55.00;;;;;;4924444;29;20039;-92
2022/01/25 08:45:53;;;;;;;20.45;12.48;;;5.70;54.70;;;;;;4943693;29;20573;-88
2022/01/25 08:48:19;;;;;;;19.10;12.45;;;5.70;54.50;;;;;;4941375;29;20041;-91
2022/01/25 08:50:45;;;;;;;19.90;12.18;;;5.70;54.30;;;;;;4940209;29;20038;-90
2022/01/25 08:53:11;;;;;;;18.85;11.68;;;5.70;54.20;;;;;;4922422;29;20059;-92
2022/01/25 08:55:37;;;;;;;18.45;11.55;;;5.70;54.00;;;;;;4937288;29;20043;-91
2022/01/25 08:58:03;;;;;;;19.15;11.75;;;5.70;53.60;;;;;;4955857;29;20049;-91
2022/01/25 09:00:30;;;;;;;20.48;13.05;;;5.70;53.30;;;;;;4929989;29;20036;-89
2022/01/25 09:02:56;;;;;;;18.83;12.02;;;5.70;53.10;;;;;;4932220;29;20027;-90
2022/01/25 09:05:22;;;;;;;19.65;12.30;;;5.60;52.80;;;;;;4935374;29;20023;-93
2022/01/25 09:07:48;;;;;;;20.83;12.27;;;5.60;52.70;;;;;;4940585;29;20414;-91
2022/01/25 09:10:14;;;;;;;20.52;12.10;;;5.60;52.60;;;;;;4939735;29;20035;-91
2022/01/25 09:12:40;;;;;;;18.52;11.90;;;5.60;52.50;;;;;;4943561;29;20047;-90
2022/01/25 09:15:06;;;;;;;18.98;12.00;;;5.60;52.40;;;;;;4929353;29;20047;-88
2022/01/25 09:17:32;;;;;;;19.50;12.02;;;5.60;52.40;;;;;;4928422;29;20042;-86
2022/01/25 09:20:00;;;;;;;17.10;11.30;;;5.60;52.40;;;;;;4925651;29;20040;-88
2022/01/25 09:22:26;;;;;;;18.08;11.25;;;5.50;52.40;;;;;;4898966;29;20036;-87
2022/01/25 09:24:52;;;;;;;18.30;11.98;;;5.50;52.30;;;;;;4934718;29;20046;-93
2022/01/25 09:27:18;;;;;;;16.30;11.40;;;5.50;52.30;;;;;;4920319;29;20122;-92
2022/01/25 09:29:44;;;;;;;21.23;12.68;;;5.50;52.20;;;;;;4917589;29;20036;-92
2022/01/25 09:32:10;;;;;;;16.52;10.68;;;5.50;52.20;;;;;;4945319;29;20106;-85
2022/01/25 09:34:36;;;;;;;18.42;11.32;;;5.50;52.10;;;;;;4947505;29;20137;-84
2022/01/25 09:37:03;;;;;;;17.00;10.65;;;5.50;52.20;;;;;;4963363;28;20040;-87
2022/01/25 09:39:29;;;;;;;16.67;10.65;;;5.50;52.30;;;;;;4963974;28;20058;-84
2022/01/25 09:42:09;;;;;;;16.30;10.30;;;5.50;52.50;;;;;;5171236;23;20216;31
2022/01/25 09:44:37;;;;;;;16.75;10.98;;;5.50;52.60;;;;;;5005156;23;20044;-84
2022/01/25 09:47:05;;;;;;;16.10;10.60;;;5.50;52.90;;;;;;5229728;23;20054;-85
2022/01/25 09:49:34;;;;;;;16.70;10.38;;;5.50;53.00;;;;;;4923018;29;20091;-86
2022/01/25 09:52:06;;;;;;;16.63;10.60;;;5.50;53.00;;;;;;5272740;23;20048;-90
2022/01/25 09:54:41;;;;;;;15.93;10.48;;;5.50;53.00;;;;;;5202507;23;20039;-92
2022/01/25 09:57:13;;;;;;;18.15;10.20;;;5.50;53.10;;;;;;5157010;23;20047;-83
2022/01/25 09:59:40;;;;;;;14.63;10.10;;;5.50;53.20;;;;;;4934896;29;20063;-89
2022/01/25 10:02:31;;;;;;;17.08;10.32;;;5.50;53.30;;;;;;5114841;23;20055;-89
2022/01/25 10:05:31;;;;;;;15.75;10.00;;;5.60;53.40;;;;;;5047713;23;20106;-87
2022/01/25 10:08:03;;;;;;;17.17;10.75;;;5.60;53.40;;;;;;5073901;23;20113;-92
2022/01/25 10:10:31;;;;;;;18.10;10.65;;;5.50;53.40;;;;;;4982526;28;20065;-93
2022/01/25 10:13:08;;;;;;;15.98;10.43;;;5.60;53.50;;;;;;4999496;28;20026;-94
2022/01/25 10:15:35;;;;;;;15.55;10.35;;;5.60;53.60;;;;;;4961432;28;20057;-95
2022/01/25 10:18:01;;;;;;;16.08;10.10;;;5.60;53.60;;;;;;4980995;28;20043;-95
2022/01/25 10:20:31;;;;;;;15.88;9.77;;;5.60;53.70;;;;;;4959334;28;20061;-95
2022/01/25 10:23:00;;;;;;;17.80;9.80;;;5.60;53.80;;;;;;4972127;28;20049;-95
2022/01/25 10:25:36;;;;;;;14.77;9.55;;;5.60;53.90;;;;;;4990529;28;20070;-89
2022/01/25 10:28:04;;;;;;;14.25;9.32;;;5.60;53.80;;;;;;4984840;28;20034;-93
2022/01/25 10:30:39;;;;;;;15.98;9.73;;;5.60;53.90;;;;;;5006322;28;20031;-94
2022/01/25 10:33:29;;;;;;;13.45;9.10;;;5.60;53.80;;;;;;4982820;28;20038;-90
2022/01/25 10:35:58;;;;;;;14.40;9.05;;;5.60;53.80;;;;;;4960197;28;20062;-88
2022/01/25 10:38:31;;;;;;;14.80;9.70;;;5.60;53.90;;;;;;5055943;23;20022;-87
2022/01/25 10:41:07;;;;;;;15.50;9.68;;;5.60;53.90;;;;;;4947993;28;20023;-88
2022/01/25 10:43:34;;;;;;;14.70;9.48;;;5.60;53.90;;;;;;4939560;29;20052;-94
2022/01/25 10:46:27;;;;;;;16.08;9.75;;;5.60;54.00;;;;;;4929362;29;20035;-92
2022/01/25 10:48:54;;;;;;;14.02;9.02;;;5.60;54.10;;;;;;4922096;29;20043;-92
2022/01/25 10:51:42;;;;;;;15.05;9.48;;;5.60;54.10;;;;;;4896940;29;20045;-93
2022/01/25 10:54:14;;;;;;;14.52;9.10;;;5.60;54.10;;;;;;4908835;28;20042;-90
2022/01/25 10:56:43;;;;;;;17.75;10.27;;;5.60;54.20;;;;;;4907368;29;20046;-94
2022/01/25 10:59:18;;;;;;;13.88;8.98;;;5.60;54.20;;;;;;4897125;29;20042;-95
2022/01/25 11:02:10;;;;;;;19.17;8.03;;;5.60;54.30;;;;;;4937599;29;20061;-93
2022/01/25 11:04:40;;;;;;;16.35;9.38;;;5.60;54.40;;;;;;4894362;29;20292;-91
2022/01/25 11:07:09;;;;;;;13.73;8.15;;;5.60;54.40;;;;;;4925017;29;20522;-85
2022/01/25 11:09:41;;;;;;;13.05;8.68;;;5.60;54.40;;;;;;4905976;29;20083;-91
2022/01/25 11:12:11;;;;;;;12.82;8.68;;;5.70;54.60;;;;;;4933602;29;20047;-90
2022/01/25 11:14:50;;;;;;;15.13;9.40;;;5.60;54.50;;;;;;4898608;29;20074;-92
2022/01/25 11:17:18;;;;;;;15.25;9.60;;;5.70;54.50;;;;;;4908093;29;20087;-94
2022/01/25 11:19:44;;;;;;;15.95;10.23;;;5.70;54.50;;;;;;4901975;29;20084;-89
2022/01/25 11:22:12;;;;;;;13.57;8.65;;;5.60;54.50;;;;;;4926092;29;20102;-88
2022/01/25 11:24:39;;;;;;;14.18;9.02;;;5.70;54.60;;;;;;4921788;29;21134;-91
2022/01/25 11:27:07;;;;;;;15.40;9.50;;;5.70;54.60;;;;;;4914931;29;20027;-89
2022/01/25 11:29:39;;;;;;;14.30;9.48;;;5.70;54.60;;;;;;4898381;29;20031;-88
2022/01/25 11:32:10;;;;;;;13.73;9.07;;;5.70;54.70;;;;;;4938598;29;20467;-87
2022/01/25 11:34:38;;;;;;;14.85;9.52;;;5.70;54.70;;;;;;4923714;29;20032;-89
2022/01/25 11:37:07;;;;;;;16.33;10.35;;;5.70;54.60;;;;;;4902991;29;20038;-93
2022/01/25 11:39:35;;;;;;;17.08;10.43;;;5.70;54.50;;;;;;4929791;28;20039;-84
2022/01/25 11:42:17;;;;;;;15.63;10.15;;;5.70;54.20;;;;;;4947653;29;20047;-88
2022/01/25 11:44:55;;;;;;;17.42;10.20;;;5.60;54.00;;;;;;4965558;28;20042;-87
2022/01/25 11:47:29;;;;;;;15.43;9.90;;;5.60;53.80;;;;;;4945650;29;20355;-90
2022/01/25 11:50:02;;;;;;;17.27;11.27;;;5.70;53.70;;;;;;4933180;29;20054;-91
2022/01/25 11:52:30;;;;;;;15.48;10.30;;;5.60;53.60;;;;;;4943011;29;20466;-88
2022/01/25 11:55:15;;;;;;;17.42;10.95;;;5.60;53.50;;;;;;4934392;29;20037;-87
2022/01/25 11:58:08;;;;;;;16.77;10.68;;;5.60;53.60;;;;;;4894923;29;20036;-83
2022/01/25 12:00:39;;;;;;;16.00;10.63;;;5.60;53.60;;;;;;4916499;29;20039;-81
2022/01/25 12:03:24;;;;;;;17.20;10.80;;;5.60;53.90;;;;;;4933276;29;20068;-82
2022/01/25 12:06:22;;;;;;;19.10;10.68;;;5.60;54.40;;;;;;4919130;29;20418;-83
2022/01/25 12:09:15;;;;;;;15.95;9.77;;;5.60;54.60;;;;;;4909904;29;20530;-84
2022/01/25 12:11:50;;;;;;;18.27;9.70;;;5.60;54.60;;;;;;4887609;29;20256;-81
2022/01/25 12:14:38;;;;;;;17.00;9.85;;;5.60;54.60;;;;;;4913521;29;20093;-81
2022/01/25 12:17:04;;;;;;;17.15;9.82;;;5.60;54.60;;;;;;4919620;29;20035;-81
2022/01/25 12:19:35;;;;;;;15.63;9.20;;;5.60;55.20;;;;;;4933385;29;20032;-81
2022/01/25 12:22:05;;;;;;;13.95;8.80;;;5.60;54.60;;;;;;4902742;29;20633;-81
2022/01/25 12:24:59;;;;;;;16.38;9.48;;;5.60;54.60;;;;;;4923117;29;20106;-82
2022/01/25 12:28:01;;;;;;;14.60;8.93;;;5.60;54.60;;;;;;4937876;29;20144;-82
2022/01/25 12:31:00;;;;;;;16.15;9.55;;;5.60;54.60;;;;;;4934476;29;20036;-81
2022/01/25 12:33:30;;;;;;;15.07;9.35;;;5.60;54.60;;;;;;4918749;29;20035;-81
2022/01/25 12:35:59;;;;;;;16.10;9.30;;;5.60;54.70;;;;;;4918239;29;20031;-82
2022/01/25 12:38:44;;;;;;;13.65;9.02;;;5.60;54.70;;;;;;4931567;28;20083;-82
2022/01/25 12:41:28;;;;;;;14.25;8.80;;;5.60;54.70;;;;;;4928613;29;20078;-82
2022/01/25 12:43:59;;;;;;;12.38;7.65;;;5.60;54.70;;;;;;4897595;29;20529;-82
2022/01/25 12:46:34;;;;;;;14.02;8.75;;;5.60;54.70;;;;;;4914819;29;20031;-83
2022/01/25 12:49:05;;;;;;;12.38;7.57;;;5.60;54.70;;;;;;4912652;29;20047;-82
2022/01/25 12:51:35;;;;;;;10.40;7.43;;;5.60;54.70;;;;;;4903344;29;20502;-82
2022/01/25 12:54:04;;;;;;;12.45;8.43;;;5.60;54.70;;;;;;4939786;29;20127;-82
2022/01/25 12:56:38;;;;;;;10.90;7.35;;;5.60;54.70;;;;;;4944132;29;20079;-81
2022/01/25 12:59:15;;;;;;;12.50;7.32;;;5.60;54.70;;;;;;4914840;29;20415;-82
2022/01/25 13:01:42;;;;;;;11.90;7.18;;;5.60;54.80;;;;;;4894749;29;20047;-83
2022/01/25 13:04:10;;;;;;;11.20;7.38;;;5.60;54.80;;;;;;4915336;29;20103;-82
2022/01/25 13:06:43;;;;;;;12.63;8.45;;;5.60;54.80;;;;;;4901860;29;20059;-82
2022/01/25 13:09:38;;;;;;;10.13;7.25;;;5.60;54.70;;;;;;4900640;29;20558;-81
2022/01/25 13:17:03;;;;;;;13.55;7.47;;;5.60;54.70;;;;;;4932161;29;20046;-82
2022/01/25 13:19:42;;;;;;;13.45;7.60;;;5.60;54.70;;;;;;4933408;29;20040;-82
2022/01/25 13:22:15;;;;;;;11.85;7.30;;;5.60;54.60;;;;;;4937741;29;20050;-82
2022/01/25 13:24:58;;;;;;;11.25;7.45;;;5.60;54.50;;;;;;4905129;29;20054;-82
2022/01/25 13:27:29;;;;;;;11.88;6.63;;;5.60;54.40;;;;;;4925664;29;20151;-83
2022/01/25 13:32:43;;;;;;;11.00;7.07;;;5.60;54.30;;;;;;4917349;29;20051;-82
2022/01/25 13:35:32;;;;;;;13.68;6.88;;;5.60;54.40;;;;;;4936385;29;20406;-82
2022/01/25 13:38:06;;;;;;;9.35;6.55;;;5.60;54.30;;;;;;4913173;29;20069;-81
2022/01/25 13:46:10;;;;;;;10.85;6.47;;;5.50;55.00;;;;;;4928185;29;20699;-81
2022/01/25 13:48:37;;;;;;;12.73;6.90;;;5.60;56.40;;;;;;4925695;29;20122;-80
2022/01/25 13:51:12;;;;;;;12.88;7.25;;;5.60;56.90;;;;;;4940300;29;20031;-81
2022/01/25 13:53:39;;;;;;;9.47;6.63;;;5.60;56.50;;;;;;4939414;29;20122;-82
2022/01/25 13:56:08;;;;;;;8.65;6.55;;;5.60;56.10;;;;;;4919466;29;20829;-80
2022/01/25 13:58:37;;;;;;;12.20;7.00;;;5.50;55.70;;;;;;4915619;29;20142;-81
2022/01/25 14:01:06;;;;;;;9.82;7.13;;;5.60;55.50;;;;;;4902459;29;20040;-81
2022/01/25 14:03:39;;;;;;;9.93;6.72;;;5.60;55.30;;;;;;4928676;29;20499;-81
2022/01/25 14:06:33;;;;;;;8.57;5.78;;;5.60;55.20;;;;;;4941160;29;20035;-80
2022/01/25 14:09:04;;;;;;;8.93;6.47;;;5.60;55.00;;;;;;4927724;29;20507;-81
2022/01/25 14:11:54;;;;;;;9.10;6.45;;;5.50;54.80;;;;;;4928934;29;20451;-82
2022/01/25 14:23:36;;;;;;;9.45;6.32;;;5.50;54.90;;;;;;4938128;29;20161;-82
2022/01/25 14:25:46;;;;;;;10.60;6.28;;;5.60;55.00;;;;;;4931959;29;20040;-80
2022/01/25 14:28:20;;;;;;;8.63;5.93;;;5.60;55.00;;;;;;4938268;29;20032;-80
2022/01/25 14:30:52;;;;;;;9.38;6.25;;;5.60;55.00;;;;;;4905445;29;20518;-80
2022/01/25 14:33:21;;;;;;;12.82;6.45;;;5.60;55.00;;;;;;4938901;29;20115;-80
2022/01/25 14:35:56;;;;;;;7.80;5.97;;;5.70;55.20;;;;;;4923793;29;21837;-79
2022/01/25 14:38:29;;;;;;;9.98;5.80;;;5.70;55.20;;;;;;4937701;29;20036;-79
2022/01/25 14:41:11;;;;;;;10.07;6.30;;;5.70;55.30;;;;;;4910159;29;20051;-80
2022/01/25 14:43:51;;;;;;;9.07;6.15;;;5.70;55.50;;;;;;4921570;29;20543;-79
2022/01/25 14:46:27;;;;;;;8.32;6.28;;;5.70;55.50;;;;;;4921957;29;20039;-80
2022/01/25 14:49:30;;;;;;;8.80;5.60;;;5.80;55.40;;;;;;4938679;29;20554;-80
2022/01/25 14:51:58;;;;;;;8.93;5.68;;;5.80;55.40;;;;;;4936837;29;20027;-79
2022/01/25 14:54:34;;;;;;;9.75;5.75;;;5.80;55.20;;;;;;4937783;29;20398;-79
2022/01/25 14:57:05;;;;;;;10.52;6.18;;;5.80;55.10;;;;;;4915302;29;20078;-80
2022/01/25 14:59:38;;;;;;;9.32;6.40;;;5.80;55.00;;;;;;4935019;29;20087;-80
2022/01/25 15:02:10;;;;;;;7.70;5.93;;;5.80;54.90;;;;;;4915889;29;20038;-79
2022/01/25 15:04:40;;;;;;;8.90;6.30;;;5.80;54.80;;;;;;4938644;29;20031;-79
2022/01/25 15:07:18;;;;;;;9.02;6.32;;;5.80;54.80;;;;;;4938905;29;20549;-80
2022/01/25 15:09:49;;;;;;;8.95;6.38;;;5.70;54.70;;;;;;4897739;29;20040;-79
2022/01/25 15:12:17;;;;;;;9.60;6.65;;;5.80;54.70;;;;;;4937796;29;20047;-79